Time;durP1;ratioP1;P1;durP2;ratioP2;P2;SDS_P1;SDS_P2;PMS_P1;PMS_P2;Temp;Humidity;BMP_temperature;BMP_pressure;BME280_temperature;BME280_humidity;BME280_pressure;Samples;Min_cycle;Max_cycle;Signal;HPM_P1;HPM_P2
2023/11/15 00:02:15;;;;;;;2.57;0.80;;;9.90;39.80;;;;;;5051978;28;20674;-73
2023/11/15 00:04:41;;;;;;;1.70;1.07;;;9.90;39.50;;;;;;5052024;28;20842;-73
2023/11/15 00:07:06;;;;;;;2.10;0.90;;;9.90;39.30;;;;;;5052160;28;20733;-73
2023/11/15 00:09:33;;;;;;;2.13;0.80;;;9.90;39.70;;;;;;5051957;28;20642;-73
2023/11/15 00:11:59;;;;;;;2.20;0.97;;;9.80;38.90;;;;;;5051857;28;20539;-73
2023/11/15 00:14:25;;;;;;;2.03;0.83;;;9.90;39.40;;;;;;5051548;28;20531;-73
2023/11/15 00:16:50;;;;;;;1.40;0.60;;;10.00;37.20;;;;;;5051959;28;20448;-73
2023/11/15 00:19:17;;;;;;;3.83;0.90;;;9.90;38.00;;;;;;5051789;28;20511;-73
2023/11/15 00:21:43;;;;;;;3.83;1.07;;;9.90;37.00;;;;;;5033790;28;20678;-73
2023/11/15 00:24:09;;;;;;;1.60;0.70;;;9.70;37.80;;;;;;5033481;28;20441;-73
2023/11/15 00:26:35;;;;;;;2.20;0.70;;;9.60;38.70;;;;;;5051600;28;20460;-73
2023/11/15 00:29:03;;;;;;;2.20;1.03;;;9.50;40.00;;;;;;5033883;28;20900;-73
2023/11/15 00:31:29;;;;;;;1.80;0.73;;;9.40;41.70;;;;;;5033977;28;20796;-73
2023/11/15 00:33:55;;;;;;;2.23;0.70;;;9.40;41.20;;;;;;5051281;28;20878;-73
2023/11/15 00:36:20;;;;;;;3.03;0.87;;;9.50;41.00;;;;;;5051706;28;20468;-73
2023/11/15 00:38:47;;;;;;;2.23;0.90;;;9.50;39.10;;;;;;5051666;28;20190;-72
2023/11/15 00:41:13;;;;;;;1.60;0.60;;;9.50;38.60;;;;;;5033582;28;20193;-73
2023/11/15 00:43:39;;;;;;;2.03;0.83;;;9.60;36.20;;;;;;5051305;28;20494;-72
2023/11/15 00:46:05;;;;;;;1.87;0.70;;;9.60;32.90;;;;;;5033922;28;20417;-72
2023/11/15 00:48:30;;;;;;;3.30;0.90;;;9.60;32.90;;;;;;5051545;28;20408;-73
2023/11/15 00:50:56;;;;;;;1.50;0.53;;;9.70;31.70;;;;;;5051492;28;20213;-72
2023/11/15 00:53:22;;;;;;;1.90;0.63;;;9.70;29.00;;;;;;5051131;28;20194;-72
2023/11/15 00:55:48;;;;;;;1.70;0.70;;;9.80;28.30;;;;;;5051471;28;20175;-72
2023/11/15 00:58:14;;;;;;;2.43;1.10;;;9.70;29.10;;;;;;5051538;28;20187;-72
2023/11/15 01:00:44;;;;;;;3.40;1.00;;;9.70;29.20;;;;;;5051328;28;20424;-72
2023/11/15 01:03:25;;;;;;;1.67;0.60;;;9.70;30.20;;;;;;5033233;28;20448;-72
2023/11/15 01:05:55;;;;;;;1.40;0.50;;;9.70;30.20;;;;;;5033407;28;20432;-72
2023/11/15 01:08:23;;;;;;;1.70;0.80;;;9.70;29.70;;;;;;5051147;28;20460;-72
2023/11/15 01:10:49;;;;;;;2.13;0.90;;;9.70;29.70;;;;;;5033404;28;21000;-73
2023/11/15 01:13:15;;;;;;;1.70;0.73;;;9.70;29.60;;;;;;5053782;28;20433;-72
2023/11/15 01:15:40;;;;;;;3.40;0.90;;;9.70;29.50;;;;;;5055042;28;20417;-72
2023/11/15 01:18:08;;;;;;;1.80;0.60;;;9.70;29.50;;;;;;5055515;28;20232;-73
2023/11/15 01:20:34;;;;;;;2.00;0.80;;;9.70;29.10;;;;;;5037175;28;20187;-73
2023/11/15 01:23:00;;;;;;;1.60;0.50;;;9.70;29.10;;;;;;5036656;28;20449;-73
2023/11/15 01:25:30;;;;;;;1.80;0.67;;;9.80;29.30;;;;;;5055151;28;20409;-72
2023/11/15 01:27:59;;;;;;;2.00;0.90;;;9.80;29.20;;;;;;5054929;28;20584;-72
2023/11/15 01:30:31;;;;;;;2.37;0.80;;;9.80;29.20;;;;;;5054910;28;20416;-72
2023/11/15 01:32:57;;;;;;;2.67;0.77;;;9.80;29.80;;;;;;5054334;28;20519;-72
2023/11/15 01:35:24;;;;;;;2.33;0.77;;;9.90;30.20;;;;;;5053694;28;20433;-73
2023/11/15 01:37:51;;;;;;;1.90;0.60;;;9.90;30.50;;;;;;5054646;28;20410;-72
2023/11/15 01:40:19;;;;;;;2.90;0.70;;;9.90;30.70;;;;;;5054506;28;20209;-72
2023/11/15 01:42:46;;;;;;;1.70;0.70;;;9.80;31.60;;;;;;5054699;28;20419;-72
2023/11/15 01:45:11;;;;;;;1.60;0.60;;;9.80;31.70;;;;;;5055048;28;21007;-72
2023/11/15 01:47:37;;;;;;;1.67;0.80;;;9.80;31.70;;;;;;5036623;28;20472;-72
2023/11/15 01:50:10;;;;;;;2.07;0.70;;;9.70;31.60;;;;;;5054490;28;20557;-72
2023/11/15 01:52:37;;;;;;;1.90;0.57;;;9.70;31.70;;;;;;5036133;28;20490;-72
2023/11/15 01:55:08;;;;;;;3.90;0.60;;;9.70;29.60;;;;;;5054335;28;20782;-73
2023/11/15 01:57:35;;;;;;;2.57;0.80;;;9.70;30.50;;;;;;5054420;28;20428;-72
2023/11/15 02:00:01;;;;;;;1.90;0.83;;;9.70;29.70;;;;;;5036457;28;20429;-72
2023/11/15 02:02:27;;;;;;;1.50;0.60;;;9.70;29.20;;;;;;5054069;28;20424;-73
2023/11/15 02:04:53;;;;;;;2.47;0.80;;;9.70;29.50;;;;;;5052816;28;20957;-72
2023/11/15 02:07:18;;;;;;;4.10;0.83;;;9.70;28.30;;;;;;5053973;28;20212;-73
2023/11/15 02:09:44;;;;;;;2.50;1.10;;;9.70;27.30;;;;;;5054143;28;20167;-72
2023/11/15 02:12:10;;;;;;;4.53;0.67;;;9.60;26.40;;;;;;5053804;28;20167;-72
2023/11/15 02:14:37;;;;;;;3.93;1.33;;;9.60;26.30;;;;;;5036034;28;20866;-72
2023/11/15 02:17:04;;;;;;;2.43;1.00;;;9.50;26.00;;;;;;5054149;28;20266;-73
2023/11/15 02:19:30;;;;;;;4.90;0.67;;;9.50;25.90;;;;;;5053894;28;20496;-72
2023/11/15 02:21:56;;;;;;;2.17;0.80;;;9.40;26.20;;;;;;5035948;28;20413;-73
2023/11/15 02:24:22;;;;;;;1.50;0.60;;;9.40;26.70;;;;;;5052160;28;20979;-72
2023/11/15 02:26:48;;;;;;;6.50;0.90;;;9.30;27.10;;;;;;5053671;28;20206;-72
2023/11/15 02:29:14;;;;;;;2.40;0.90;;;9.20;28.40;;;;;;5053572;28;20412;-72
2023/11/15 02:31:39;;;;;;;1.60;0.73;;;9.10;28.70;;;;;;5053796;28;20410;-72
2023/11/15 02:34:05;;;;;;;1.60;0.57;;;9.00;29.90;;;;;;5053308;28;20284;-73
2023/11/15 02:36:31;;;;;;;4.60;0.83;;;9.00;31.20;;;;;;5035866;28;20561;-73
2023/11/15 02:38:56;;;;;;;1.90;0.63;;;9.00;31.10;;;;;;5053685;28;20308;-72
2023/11/15 02:41:23;;;;;;;1.73;0.67;;;9.10;31.70;;;;;;5035762;28;20229;-72
2023/11/15 02:43:48;;;;;;;2.43;0.60;;;9.10;32.10;;;;;;5053587;28;20195;-73
2023/11/15 02:46:19;;;;;;;1.87;0.70;;;9.10;31.10;;;;;;5057420;28;20507;-72
2023/11/15 02:48:44;;;;;;;3.60;0.80;;;9.10;31.10;;;;;;5059130;28;20670;-72
2023/11/15 02:51:10;;;;;;;1.80;0.70;;;9.10;31.10;;;;;;5059219;28;20437;-72
2023/11/15 02:53:36;;;;;;;4.87;1.33;;;9.10;31.20;;;;;;5041213;28;20208;-72
2023/11/15 02:56:03;;;;;;;2.40;0.60;;;9.00;31.10;;;;;;5056114;28;20858;-72
2023/11/15 02:58:28;;;;;;;5.93;0.80;;;8.90;31.50;;;;;;5053358;28;20588;-72
2023/11/15 03:00:54;;;;;;;1.77;0.73;;;8.90;32.30;;;;;;5053308;28;20415;-72
2023/11/15 03:03:20;;;;;;;2.23;0.60;;;8.80;33.70;;;;;;5053227;28;20190;-73
2023/11/15 03:05:46;;;;;;;1.77;0.70;;;8.80;35.20;;;;;;5035625;28;20236;-72
2023/11/15 03:08:13;;;;;;;2.47;1.40;;;8.70;35.70;;;;;;5053315;28;20203;-73
2023/11/15 03:10:39;;;;;;;2.80;0.80;;;8.60;36.00;;;;;;5053089;28;20784;-72
2023/11/15 03:13:04;;;;;;;1.53;0.63;;;8.50;37.50;;;;;;5052821;28;20429;-72
2023/11/15 03:15:30;;;;;;;2.63;0.97;;;8.50;36.70;;;;;;5053324;28;20177;-72
2023/11/15 03:17:56;;;;;;;2.80;1.10;;;8.50;37.80;;;;;;5053033;28;20209;-73
2023/11/15 03:20:22;;;;;;;2.70;1.20;;;8.50;37.50;;;;;;5052925;28;20417;-73
2023/11/15 03:22:48;;;;;;;2.17;0.83;;;8.50;36.40;;;;;;5052598;28;20184;-73
2023/11/15 03:25:13;;;;;;;2.00;0.80;;;8.50;37.40;;;;;;5053181;28;20193;-72
2023/11/15 03:27:39;;;;;;;1.73;0.70;;;8.50;37.40;;;;;;5052730;28;20589;-72
2023/11/15 03:30:05;;;;;;;4.33;1.50;;;8.60;38.10;;;;;;5034885;28;20269;-72
2023/11/15 03:32:34;;;;;;;5.73;0.80;;;8.50;37.40;;;;;;5052398;28;20186;-72
2023/11/15 03:34:59;;;;;;;1.80;0.80;;;8.50;37.70;;;;;;5052352;28;20421;-72
2023/11/15 03:37:25;;;;;;;2.03;0.90;;;8.50;39.40;;;;;;5052695;28;20424;-72
2023/11/15 03:39:50;;;;;;;3.00;0.77;;;8.50;39.30;;;;;;5052524;28;20264;-72
2023/11/15 03:42:16;;;;;;;3.63;1.00;;;8.60;39.40;;;;;;5034334;28;20182;-72
2023/11/15 03:44:41;;;;;;;2.10;0.90;;;8.60;38.50;;;;;;5051180;28;20235;-72
2023/11/15 03:47:07;;;;;;;2.13;0.93;;;8.70;36.90;;;;;;5052514;28;20197;-72
2023/11/15 03:49:33;;;;;;;2.20;0.93;;;8.80;36.10;;;;;;5052418;28;20180;-72
2023/11/15 03:51:59;;;;;;;1.80;0.93;;;8.90;34.80;;;;;;5052301;28;20432;-72
2023/11/15 03:54:24;;;;;;;1.60;0.70;;;8.90;34.00;;;;;;5033953;28;20284;-72
2023/11/15 03:56:50;;;;;;;2.20;0.90;;;9.00;35.00;;;;;;5052260;28;20243;-72
2023/11/15 03:59:15;;;;;;;2.20;0.67;;;9.00;33.40;;;;;;5052029;28;20185;-72
2023/11/15 04:01:41;;;;;;;2.67;0.80;;;9.00;33.70;;;;;;5052086;28;20650;-72
2023/11/15 04:04:07;;;;;;;2.40;0.90;;;8.80;34.50;;;;;;5051787;28;20194;-72
2023/11/15 04:06:32;;;;;;;2.87;1.00;;;8.80;34.90;;;;;;5051858;28;20206;-72
2023/11/15 04:08:59;;;;;;;3.90;1.37;;;8.70;37.00;;;;;;5051847;28;20199;-72
2023/11/15 04:11:26;;;;;;;2.70;0.90;;;8.60;36.40;;;;;;5033965;28;20175;-72
2023/11/15 04:13:52;;;;;;;2.03;0.90;;;8.60;37.00;;;;;;5051640;28;20797;-72
2023/11/15 04:16:18;;;;;;;1.80;0.87;;;8.60;36.50;;;;;;5051772;28;20420;-72
2023/11/15 04:18:44;;;;;;;3.27;1.10;;;8.60;36.70;;;;;;5051949;28;20409;-72
2023/11/15 04:21:09;;;;;;;2.37;1.10;;;8.60;37.00;;;;;;5051638;28;20178;-72
2023/11/15 04:23:36;;;;;;;6.70;1.53;;;8.60;36.20;;;;;;5051405;28;20206;-72
2023/11/15 04:26:02;;;;;;;2.10;1.00;;;8.50;36.90;;;;;;5034146;28;20184;-72
2023/11/15 04:28:28;;;;;;;3.33;1.53;;;8.50;37.60;;;;;;5051661;28;20459;-72
2023/11/15 04:30:54;;;;;;;4.83;0.97;;;8.40;38.00;;;;;;5051615;28;20174;-72
2023/11/15 04:33:20;;;;;;;2.33;0.97;;;8.40;40.30;;;;;;5051280;28;20459;-72
2023/11/15 04:35:45;;;;;;;2.47;0.97;;;8.40;40.60;;;;;;5051538;28;20175;-72
2023/11/15 04:38:11;;;;;;;2.33;1.13;;;8.30;40.90;;;;;;5051626;28;20573;-72
2023/11/15 04:40:37;;;;;;;3.80;1.60;;;8.40;41.80;;;;;;5050354;28;20185;-72
2023/11/15 04:43:04;;;;;;;3.30;0.90;;;8.50;41.60;;;;;;5051207;28;20678;-72
2023/11/15 04:45:30;;;;;;;3.10;1.27;;;8.60;41.10;;;;;;5051698;28;20257;-73
2023/11/15 04:47:55;;;;;;;2.90;1.07;;;8.60;41.10;;;;;;5053645;28;20539;-72
2023/11/15 04:50:22;;;;;;;4.67;0.67;;;8.70;41.20;;;;;;5055709;28;20515;-72
2023/11/15 04:52:48;;;;;;;2.40;0.50;;;8.70;38.60;;;;;;5055268;28;20513;-72
2023/11/15 04:55:14;;;;;;;2.77;0.90;;;8.70;38.30;;;;;;5055640;28;20410;-72
2023/11/15 04:57:40;;;;;;;1.80;1.00;;;8.80;37.50;;;;;;5055405;28;20170;-72
2023/11/15 05:00:10;;;;;;;2.07;1.03;;;8.90;37.70;;;;;;5037524;28;20436;-72
2023/11/15 05:02:36;;;;;;;3.23;1.00;;;9.00;38.00;;;;;;5055216;28;20178;-72
2023/11/15 05:05:03;;;;;;;3.87;1.23;;;9.00;36.40;;;;;;5055383;28;20527;-72
2023/11/15 05:07:32;;;;;;;2.63;1.00;;;9.00;36.60;;;;;;5055900;28;20195;-71
2023/11/15 05:10:04;;;;;;;2.00;0.87;;;9.10;37.50;;;;;;5055355;28;20491;-72
2023/11/15 05:12:33;;;;;;;2.10;1.03;;;9.10;36.10;;;;;;5053926;28;20437;-71
2023/11/15 05:14:58;;;;;;;2.33;1.23;;;9.10;36.40;;;;;;5053872;28;20527;-71
2023/11/15 05:17:24;;;;;;;2.63;1.10;;;9.20;36.40;;;;;;5055286;28;20491;-72
2023/11/15 05:19:49;;;;;;;5.40;1.20;;;9.20;35.40;;;;;;5054962;28;20266;-71
2023/11/15 05:22:15;;;;;;;1.90;1.07;;;9.10;35.90;;;;;;5054964;28;20651;-72
2023/11/15 05:24:40;;;;;;;4.20;1.63;;;9.10;35.30;;;;;;5055094;28;20218;-71
2023/11/15 05:27:06;;;;;;;4.97;2.00;;;9.20;35.40;;;;;;5055848;28;20205;-72
2023/11/15 05:29:32;;;;;;;3.40;1.93;;;9.10;34.80;;;;;;5038160;28;20674;-71
2023/11/15 05:31:58;;;;;;;2.63;1.10;;;9.20;36.10;;;;;;5041297;28;20416;-72
2023/11/15 05:34:25;;;;;;;5.20;1.33;;;9.30;35.10;;;;;;5057759;28;20512;-72
2023/11/15 05:36:51;;;;;;;2.37;0.90;;;9.20;34.30;;;;;;5056065;28;20420;-72
2023/11/15 05:39:17;;;;;;;2.37;1.00;;;9.20;32.90;;;;;;5037493;28;20425;-72
2023/11/15 05:41:43;;;;;;;2.27;0.97;;;9.20;33.20;;;;;;5054936;28;20197;-71
2023/11/15 05:44:08;;;;;;;3.60;1.20;;;9.20;32.60;;;;;;5054683;28;20428;-71
2023/11/15 05:46:34;;;;;;;3.73;0.73;;;9.30;31.80;;;;;;5053693;28;20202;-72
2023/11/15 05:49:00;;;;;;;3.90;1.40;;;9.30;31.30;;;;;;5054867;28;20174;-72
2023/11/15 05:51:25;;;;;;;1.80;0.73;;;9.30;32.20;;;;;;5054612;28;20167;-71
2023/11/15 05:53:51;;;;;;;2.53;1.40;;;9.30;32.30;;;;;;5054412;28;20440;-71
2023/11/15 05:56:17;;;;;;;7.47;1.33;;;9.20;31.30;;;;;;5054650;28;20213;-72
2023/11/15 05:58:42;;;;;;;2.07;1.00;;;9.20;33.40;;;;;;5036167;28;20181;-71
2023/11/15 06:01:08;;;;;;;1.70;0.83;;;9.20;31.20;;;;;;5054497;28;20527;-72
2023/11/15 06:03:34;;;;;;;5.37;1.83;;;9.20;31.50;;;;;;5054164;28;20190;-72
2023/11/15 06:06:01;;;;;;;1.97;0.90;;;9.20;30.70;;;;;;5054405;28;20413;-71
2023/11/15 06:08:27;;;;;;;2.27;0.90;;;9.20;31.20;;;;;;5036218;28;20214;-72
2023/11/15 06:10:53;;;;;;;3.13;0.97;;;9.20;31.20;;;;;;5054117;28;20409;-71
2023/11/15 06:13:18;;;;;;;3.00;1.03;;;9.20;31.20;;;;;;5054051;28;20247;-71
2023/11/15 06:15:44;;;;;;;2.33;1.00;;;9.20;30.00;;;;;;5054129;28;20402;-72
2023/11/15 06:18:10;;;;;;;3.37;1.43;;;9.20;31.00;;;;;;5053989;28;20205;-72
2023/11/15 06:20:38;;;;;;;2.23;1.17;;;9.20;30.00;;;;;;5054197;28;20179;-72
2023/11/15 06:23:04;;;;;;;3.17;1.00;;;9.20;31.10;;;;;;5053864;28;20447;-72
2023/11/15 06:25:32;;;;;;;1.80;0.83;;;9.30;31.20;;;;;;5036032;28;20809;-72
2023/11/15 06:27:58;;;;;;;5.00;1.10;;;9.20;31.10;;;;;;5054124;28;20562;-71
2023/11/15 06:30:23;;;;;;;6.77;1.40;;;9.20;31.20;;;;;;5036194;28;20860;-72
2023/11/15 06:32:49;;;;;;;5.00;1.10;;;9.30;30.40;;;;;;5035384;28;20421;-72
2023/11/15 06:35:18;;;;;;;2.63;0.90;;;9.30;30.20;;;;;;5053933;28;20265;-72
2023/11/15 06:37:45;;;;;;;5.73;1.57;;;9.20;29.80;;;;;;5054384;28;20543;-71
2023/11/15 06:40:13;;;;;;;2.40;0.93;;;9.30;30.00;;;;;;5055429;28;20412;-71
2023/11/15 06:42:39;;;;;;;1.90;1.00;;;9.30;29.50;;;;;;5060776;28;20428;-71
2023/11/15 06:45:05;;;;;;;2.10;0.67;;;9.20;30.70;;;;;;5042961;28;20512;-72
2023/11/15 06:47:31;;;;;;;3.03;1.00;;;9.30;31.00;;;;;;5056485;28;20202;-72
2023/11/15 06:49:58;;;;;;;4.00;1.23;;;9.20;30.40;;;;;;5053689;28;20499;-72
2023/11/15 06:52:25;;;;;;;1.83;0.87;;;9.20;30.10;;;;;;5035538;28;20421;-72
2023/11/15 06:54:52;;;;;;;8.80;1.10;;;9.20;31.30;;;;;;5053489;28;20810;-72
2023/11/15 06:57:19;;;;;;;2.70;0.97;;;9.20;31.20;;;;;;5053733;28;20885;-72
2023/11/15 06:59:44;;;;;;;2.67;1.10;;;9.20;31.80;;;;;;5053187;28;20421;-72
2023/11/15 07:02:11;;;;;;;3.13;0.90;;;9.30;30.40;;;;;;5053406;28;20424;-71
2023/11/15 07:04:37;;;;;;;2.90;1.17;;;9.30;30.10;;;;;;5053144;28;20549;-72
2023/11/15 07:07:02;;;;;;;3.37;1.10;;;9.30;29.40;;;;;;5053113;28;20463;-72
2023/11/15 07:09:28;;;;;;;5.47;1.10;;;9.30;29.70;;;;;;5034666;28;20707;-72
2023/11/15 07:11:54;;;;;;;2.93;0.77;;;9.30;29.10;;;;;;5052686;28;20424;-71
2023/11/15 07:14:20;;;;;;;2.57;1.00;;;9.30;30.00;;;;;;5052666;28;20210;-71
2023/11/15 07:16:55;;;;;;;2.43;0.80;;;9.30;28.90;;;;;;5035094;28;20324;-72
2023/11/15 07:19:24;;;;;;;2.80;0.93;;;9.40;33.30;;;;;;5052840;28;20420;-72
2023/11/15 07:21:52;;;;;;;2.97;1.07;;;9.40;33.30;;;;;;5052852;28;20503;-71
2023/11/15 07:24:19;;;;;;;1.50;0.60;;;9.30;32.30;;;;;;5052471;28;20525;-72
2023/11/15 07:26:45;;;;;;;3.30;1.00;;;9.40;31.40;;;;;;5052494;28;20453;-72
2023/11/15 07:29:12;;;;;;;3.77;1.10;;;9.30;31.30;;;;;;5052535;28;20446;-71
2023/11/15 07:31:40;;;;;;;2.40;1.40;;;9.30;32.50;;;;;;5052638;28;20459;-71
2023/11/15 07:34:08;;;;;;;3.30;1.23;;;9.50;33.80;;;;;;5052242;28;20453;-71
2023/11/15 07:36:33;;;;;;;4.10;1.43;;;9.50;31.00;;;;;;5052682;28;20416;-72
2023/11/15 07:39:04;;;;;;;2.00;0.70;;;9.60;30.50;;;;;;5052459;28;20413;-72
2023/11/15 07:41:30;;;;;;;7.00;1.10;;;9.70;28.40;;;;;;5034605;28;20491;-72
2023/11/15 07:43:55;;;;;;;2.40;1.10;;;9.70;28.50;;;;;;5034573;28;20480;-71
2023/11/15 07:46:25;;;;;;;2.10;1.03;;;9.80;28.00;;;;;;5052284;28;20583;-72
2023/11/15 07:48:51;;;;;;;4.87;0.87;;;10.00;26.70;;;;;;5052645;28;20170;-72
2023/11/15 07:51:18;;;;;;;2.60;0.80;;;10.10;24.90;;;;;;5052196;28;20853;-72
2023/11/15 07:53:44;;;;;;;7.47;2.30;;;10.10;24.60;;;;;;5052216;28;20572;-72
2023/11/15 07:56:10;;;;;;;3.00;1.13;;;10.20;23.50;;;;;;5052291;28;20500;-72
2023/11/15 07:58:36;;;;;;;2.00;1.03;;;10.30;24.30;;;;;;5034516;28;20509;-72
2023/11/15 08:01:04;;;;;;;2.13;0.90;;;10.20;22.00;;;;;;5053828;28;20204;-71
2023/11/15 08:03:30;;;;;;;4.70;0.87;;;10.20;22.40;;;;;;5050435;28;20202;-72
2023/11/15 08:05:55;;;;;;;2.67;0.90;;;10.30;22.80;;;;;;5052272;28;20470;-72
2023/11/15 08:08:22;;;;;;;3.00;0.80;;;10.30;22.20;;;;;;5051973;28;20206;-72
2023/11/15 08:10:50;;;;;;;2.53;1.10;;;10.30;21.50;;;;;;5051802;28;20170;-72
2023/11/15 08:13:20;;;;;;;2.73;1.03;;;10.30;21.30;;;;;;5051677;28;20456;-72
2023/11/15 08:15:47;;;;;;;2.80;0.87;;;10.50;22.00;;;;;;5052261;28;20409;-72
2023/11/15 08:18:14;;;;;;;4.07;1.17;;;10.50;19.40;;;;;;5053432;28;20418;-72
2023/11/15 08:20:43;;;;;;;1.97;0.77;;;10.50;19.30;;;;;;5051762;28;20441;-71
2023/11/15 08:23:10;;;;;;;3.03;1.20;;;10.40;19.40;;;;;;5051322;28;20437;-72
2023/11/15 08:25:37;;;;;;;2.63;1.27;;;10.40;20.10;;;;;;5051894;28;20421;-72
2023/11/15 08:28:03;;;;;;;3.90;1.00;;;10.50;21.10;;;;;;5051406;28;20473;-72
2023/11/15 08:30:30;;;;;;;2.27;0.70;;;10.60;20.30;;;;;;5051599;28;20498;-72
2023/11/15 08:32:56;;;;;;;2.77;1.27;;;10.80;18.90;;;;;;5051353;28;20776;-72
2023/11/15 08:35:21;;;;;;;1.60;0.70;;;10.70;18.70;;;;;;5051758;28;20412;-72
2023/11/15 08:37:48;;;;;;;2.90;0.70;;;10.80;17.40;;;;;;5033809;28;20179;-72
2023/11/15 08:40:13;;;;;;;3.30;1.20;;;10.90;16.90;;;;;;5051774;28;20210;-72
2023/11/15 08:42:39;;;;;;;3.17;1.30;;;10.90;15.10;;;;;;5051429;28;20450;-72
2023/11/15 08:45:11;;;;;;;2.80;0.90;;;10.90;16.00;;;;;;5051653;28;20423;-71
2023/11/15 08:47:37;;;;;;;2.40;0.83;;;10.90;14.80;;;;;;5033578;28;20465;-71
2023/11/15 08:50:08;;;;;;;2.90;1.27;;;10.80;14.60;;;;;;5051891;28;20945;-71
2023/11/15 08:52:33;;;;;;;2.67;0.90;;;10.80;16.00;;;;;;5051642;28;20159;-72
2023/11/15 08:54:59;;;;;;;3.50;1.07;;;10.70;16.60;;;;;;5033746;28;20463;-72
2023/11/15 08:57:26;;;;;;;2.87;1.00;;;10.80;16.40;;;;;;5051612;28;20192;-72
2023/11/15 08:59:51;;;;;;;2.27;1.10;;;10.70;16.60;;;;;;5051651;28;20325;-72
2023/11/15 09:02:21;;;;;;;4.70;1.20;;;10.70;17.80;;;;;;5051405;28;20516;-71
2023/11/15 09:04:46;;;;;;;3.90;1.07;;;10.70;17.90;;;;;;5050214;28;20198;-72
2023/11/15 09:07:12;;;;;;;2.17;0.73;;;10.70;17.30;;;;;;5051474;28;20973;-71
2023/11/15 09:09:41;;;;;;;2.67;1.37;;;10.70;17.70;;;;;;5051781;28;20174;-72
2023/11/15 09:12:08;;;;;;;4.60;1.70;;;10.70;17.70;;;;;;5051367;28;20743;-72
2023/11/15 09:14:35;;;;;;;2.40;1.00;;;10.70;17.10;;;;;;5033267;28;20448;-72
2023/11/15 09:17:05;;;;;;;3.50;1.63;;;10.60;16.30;;;;;;5051581;28;20792;-71
2023/11/15 09:19:32;;;;;;;3.10;1.40;;;10.60;17.30;;;;;;5051325;28;20424;-72
2023/11/15 09:22:02;;;;;;;2.27;1.10;;;10.80;17.80;;;;;;5033603;28;20445;-72
2023/11/15 09:24:29;;;;;;;2.80;1.23;;;11.00;17.90;;;;;;5033252;28;20446;-72
2023/11/15 09:26:57;;;;;;;3.17;1.10;;;11.00;15.40;;;;;;5051198;28;20445;-72
2023/11/15 09:29:24;;;;;;;4.17;1.20;;;10.90;15.80;;;;;;5051295;28;20830;-72
2023/11/15 09:31:50;;;;;;;8.73;1.53;;;10.90;16.00;;;;;;5051161;28;20416;-72
2023/11/15 09:34:16;;;;;;;1.90;0.77;;;11.10;15.70;;;;;;5043765;22;20483;-71
2023/11/15 09:36:42;;;;;;;2.30;0.80;;;11.20;16.60;;;;;;4995196;28;20485;-71
2023/11/15 09:39:09;;;;;;;3.00;1.60;;;11.30;15.00;;;;;;4995019;28;20407;-71
2023/11/15 09:41:35;;;;;;;4.03;0.90;;;11.40;15.00;;;;;;4994880;28;20437;-71
2023/11/15 09:44:09;;;;;;;3.40;1.77;;;11.10;14.70;;;;;;4985393;28;20432;-71
2023/11/15 09:46:36;;;;;;;3.20;1.57;;;11.00;16.40;;;;;;4975344;28;20429;-71
2023/11/15 09:49:02;;;;;;;2.00;0.90;;;10.90;15.90;;;;;;4975495;28;20421;-70
2023/11/15 09:51:34;;;;;;;4.53;0.80;;;10.80;15.80;;;;;;4975483;28;20418;-70
2023/11/15 09:54:03;;;;;;;1.90;0.90;;;10.70;17.00;;;;;;4973913;28;20523;-69
2023/11/15 09:56:28;;;;;;;2.93;0.90;;;10.70;18.00;;;;;;4975372;28;20418;-70
2023/11/15 09:58:57;;;;;;;3.43;1.03;;;10.80;17.00;;;;;;4975194;28;20428;-69
2023/11/15 10:01:23;;;;;;;2.10;0.90;;;10.80;17.20;;;;;;4975223;28;20605;-71
2023/11/15 10:03:50;;;;;;;2.93;1.37;;;10.70;17.70;;;;;;4975153;28;20511;-70
2023/11/15 10:06:16;;;;;;;1.80;0.83;;;10.70;18.30;;;;;;4975307;28;20418;-70
2023/11/15 10:09:08;;;;;;;2.00;0.80;;;10.80;18.90;;;;;;4974945;28;20455;-69
2023/11/15 10:11:37;;;;;;;4.73;1.70;;;10.90;18.10;;;;;;4955117;28;20455;-70
2023/11/15 10:14:10;;;;;;;2.97;0.80;;;11.00;18.00;;;;;;4974739;28;20505;-70
2023/11/15 10:16:36;;;;;;;2.60;1.20;;;11.10;16.00;;;;;;4975248;28;20412;-70
2023/11/15 10:19:22;;;;;;;2.53;1.37;;;11.20;15.00;;;;;;4974962;28;20778;-71
2023/11/15 10:22:02;;;;;;;3.33;1.10;;;11.50;13.40;;;;;;4974679;28;20778;-70
2023/11/15 10:24:28;;;;;;;2.43;1.00;;;11.60;14.20;;;;;;4974466;28;20855;-70
2023/11/15 10:27:14;;;;;;;3.13;1.03;;;11.60;12.10;;;;;;4974655;28;20485;-70
2023/11/15 10:29:45;;;;;;;5.23;1.47;;;11.80;12.70;;;;;;4974792;28;20441;-70
2023/11/15 10:32:11;;;;;;;4.30;1.50;;;11.60;10.90;;;;;;4974461;28;20414;-70
2023/11/15 10:34:51;;;;;;;3.70;1.63;;;11.60;12.10;;;;;;4976004;28;20872;-70
2023/11/15 10:37:18;;;;;;;3.60;1.50;;;11.90;12.30;;;;;;4978799;28;20428;-70
2023/11/15 10:39:47;;;;;;;4.83;1.03;;;12.10;11.00;;;;;;4976534;28;20909;-71
2023/11/15 10:42:17;;;;;;;2.20;0.80;;;11.80;10.50;;;;;;4974427;28;20448;-70
2023/11/15 10:44:47;;;;;;;2.47;0.90;;;11.80;11.30;;;;;;4972535;28;21024;-70
2023/11/15 10:47:19;;;;;;;4.67;1.50;;;12.20;11.10;;;;;;4972951;28;21324;-70
2023/11/15 10:49:50;;;;;;;5.77;1.67;;;12.60;8.90;;;;;;4974635;28;20424;-70
2023/11/15 10:52:16;;;;;;;3.63;1.80;;;12.50;6.90;;;;;;4974001;28;20413;-71
2023/11/15 10:54:43;;;;;;;3.57;1.03;;;12.60;7.00;;;;;;4974258;28;20486;-70
2023/11/15 10:57:09;;;;;;;2.50;1.50;;;12.70;7.10;;;;;;4974187;28;20416;-70
2023/11/15 10:59:38;;;;;;;3.03;1.30;;;12.50;4.60;;;;;;4974259;28;21146;-70
2023/11/15 11:02:05;;;;;;;5.70;1.40;;;12.60;5.10;;;;;;4974143;28;20409;-70
2023/11/15 11:04:33;;;;;;;2.27;1.13;;;12.60;6.30;;;;;;4973872;28;20440;-70
2023/11/15 11:07:08;;;;;;;2.70;1.33;;;12.60;5.40;;;;;;4973924;28;20453;-70
2023/11/15 11:09:52;;;;;;;2.77;1.43;;;12.80;5.90;;;;;;4972601;28;20442;-71
2023/11/15 11:12:20;;;;;;;2.70;1.07;;;12.80;4.00;;;;;;4973678;28;20420;-70
2023/11/15 11:14:46;;;;;;;1.93;0.90;;;12.80;3.70;;;;;;4973751;28;20455;-71
2023/11/15 11:17:32;;;;;;;2.20;0.90;;;12.90;3.30;;;;;;4956322;28;20435;-71
2023/11/15 11:20:00;;;;;;;2.43;0.93;;;13.10;2.90;;;;;;4973805;28;20416;-71
2023/11/15 11:22:26;;;;;;;2.17;1.07;;;13.00;3.00;;;;;;4973549;28;20417;-71
2023/11/15 11:25:07;;;;;;;3.70;1.87;;;12.80;2.60;;;;;;4973781;28;20438;-70
2023/11/15 11:27:34;;;;;;;2.73;0.90;;;12.70;3.50;;;;;;4973928;28;20284;-70
2023/11/15 11:30:02;;;;;;;3.70;1.40;;;12.60;2.90;;;;;;4973717;28;20475;-70
2023/11/15 11:32:32;;;;;;;3.27;1.27;;;12.50;3.10;;;;;;4973554;28;20423;-70
2023/11/15 11:35:13;;;;;;;3.00;0.83;;;12.70;2.90;;;;;;4973518;28;20824;-70
2023/11/15 11:37:46;;;;;;;5.30;1.93;;;12.80;1.80;;;;;;4973793;28;20397;-70
2023/11/15 11:40:15;;;;;;;3.10;1.57;;;12.60;3.50;;;;;;4956151;28;20942;-70
2023/11/15 11:42:43;;;;;;;2.50;1.00;;;12.50;3.00;;;;;;4972112;28;20421;-70
2023/11/15 11:45:09;;;;;;;3.50;1.63;;;12.50;3.80;;;;;;4973291;28;20443;-70
2023/11/15 11:47:44;;;;;;;2.57;0.90;;;12.60;2.70;;;;;;4973302;28;20832;-70
2023/11/15 11:50:11;;;;;;;2.20;1.20;;;12.90;1.10;;;;;;4973503;28;20430;-70
2023/11/15 11:52:39;;;;;;;2.07;1.10;;;13.10;1.00;;;;;;4973309;28;20794;-71
2023/11/15 11:55:06;;;;;;;3.40;1.23;;;13.40;1.00;;;;;;4973135;28;20804;-70
2023/11/15 11:57:33;;;;;;;2.10;1.07;;;13.10;1.00;;;;;;4972921;28;20416;-70
2023/11/15 12:00:13;;;;;;;3.13;1.00;;;13.10;1.00;;;;;;4971692;28;20529;-71
2023/11/15 12:02:43;;;;;;;2.50;1.03;;;13.30;1.00;;;;;;4971425;28;20809;-71
2023/11/15 12:05:12;;;;;;;1.60;0.70;;;13.20;1.00;;;;;;4972723;28;20436;-70
2023/11/15 12:07:45;;;;;;;3.70;1.00;;;13.40;1.00;;;;;;4972767;28;20830;-70
2023/11/15 12:10:13;;;;;;;2.63;1.20;;;13.10;1.00;;;;;;4972718;28;20466;-70
2023/11/15 12:12:46;;;;;;;2.50;1.23;;;12.90;1.00;;;;;;4972582;28;20412;-71
2023/11/15 12:15:15;;;;;;;7.03;0.90;;;12.70;1.00;;;;;;4972827;28;20441;-71
2023/11/15 12:17:45;;;;;;;3.90;1.10;;;12.80;1.00;;;;;;4972749;28;20424;-71
2023/11/15 12:20:13;;;;;;;3.80;1.40;;;12.70;1.00;;;;;;4973061;28;20423;-70
2023/11/15 12:22:43;;;;;;;2.20;1.23;;;12.60;2.10;;;;;;4954971;28;20422;-71
2023/11/15 12:25:13;;;;;;;6.60;1.40;;;12.30;2.30;;;;;;4972606;28;20464;-70
2023/11/15 12:27:41;;;;;;;9.60;3.50;;;12.30;2.30;;;;;;4972670;28;20459;-70
2023/11/15 12:30:07;;;;;;;5.67;2.20;;;12.20;2.60;;;;;;4972766;28;20412;-70
2023/11/15 12:32:44;;;;;;;2.47;1.40;;;12.20;3.10;;;;;;4972469;28;20436;-71
2023/11/15 12:35:11;;;;;;;2.03;1.10;;;12.10;2.90;;;;;;4970996;28;20455;-70
2023/11/15 12:37:38;;;;;;;2.47;0.93;;;12.10;2.70;;;;;;4972643;28;20772;-70
2023/11/15 12:40:19;;;;;;;3.70;1.63;;;12.00;3.70;;;;;;4972722;28;20463;-70
2023/11/15 12:42:45;;;;;;;3.40;1.43;;;11.90;3.70;;;;;;4972405;28;20522;-70
2023/11/15 12:45:29;;;;;;;2.87;1.27;;;12.00;4.20;;;;;;4972624;28;20443;-70
2023/11/15 12:48:07;;;;;;;3.00;1.40;;;11.90;3.30;;;;;;4972507;28;20553;-70
2023/11/15 12:50:34;;;;;;;4.60;1.33;;;12.00;3.70;;;;;;4972593;28;20826;-70
2023/11/15 12:53:07;;;;;;;2.63;1.23;;;12.10;3.70;;;;;;4954871;28;20433;-70
2023/11/15 12:55:38;;;;;;;3.50;1.37;;;12.20;2.70;;;;;;4972603;28;20444;-70
2023/11/15 12:58:04;;;;;;;3.70;1.50;;;12.30;2.30;;;;;;4972453;28;20780;-71